Racecast

Miranda Clark

Mount Pleasant (MI) · 12 · RRCNC D4ACABARRUS · Compare head to head

Athlete rating 100.6 2010 XC season
Best race 103.7 TF
Races 35
Seasons 4 2010 — 2013

RankedNation #66198·NC #1187·NC D4A #612·RRC #7·Team #99 ?

Speed rating — all races

Cross Country

XC speed rating

2010 XC 98.0

Mount Pleasant (MI) · Grade 10

Date Meet Event Result Place Rating Difficulty PR/SR Flags
2010-10-02 McAlpine Creek Park 5000m 24:22 161st · 1st on team 102.2 +0.009 ★PR ★CR R SR CSR RSR
2010-09-11 Cannon School 5000m 27:15.8 115th · 2nd on team 93.7 +0.042 PR ★CR R SR CSR RSR

Track & Field

TF speed rating

2013 TF 102.3

Mount Pleasant (MI) · Grade 12

Date Meet Event Result Place Rating Difficulty PR/SR Flags
2013-04-24 Spc Last Chance 800m 3:00.43 12th · 4th on team 102.3 -0.035 SR RSR
2013-04-16 SPC Championships 400m 1:11.84 20th · 2nd on team -0.037
2013-04-11 Spc #3 Cm, Nw, Hr, Mp 200m 31.54 12th · 2nd on team -0.035 SR
2013-04-11 Spc #3 Cm, Nw, Hr, Mp 400m 1:09.54 2nd · 1st on team -0.035 SR
2013-03-21 SPC #2 CC, JMR, Con, MP 400m 1:15.04 7th · 1st on team -0.035
2013-03-14 Spc #1 Jmr, Cm, Nw, Mp 400m 1:11.14 5th · 1st on team -0.035 SR
2013-01-09 East Rowan Polar Bear Meet #2 55m 8.44 12th · 1st on team -0.037
2013-01-09 East Rowan Polar Bear Meet #2 300mh 48.64 11th · 1st on team -0.037 ★PR SR
2012-12-19 East Rowan Polar Bear Meet #1 55m 8.44 8th · 1st on team -0.037 PR SR
2012-12-19 East Rowan Polar Bear Meet #1 300m 49.44 14th · 1st on team -0.037 ★PR SR

2012 TF 103.7

Mount Pleasant (MI) · Grade 11

Date Meet Event Result Place Rating Difficulty PR/SR Flags
2012-05-03 Spc Last Chance Meet 800m 2:57.8 9th · 4th on team 103.7 -0.035 ★PR ★R SR RSR
2012-04-25 SPC conference CHAMPIONSHIP 400m 1:12.54 16th · 2nd on team -0.035
2012-04-19 Mount Pleasant #6 400m 1:11.54 3rd · 3rd on team -0.035
2012-04-05 Mount Pleasant #5 400m 1:13.84 5th · 2nd on team -0.035
2012-03-29 Mount Pleasant #4 400m 1:11.04 7th · 1st on team -0.035
2012-03-29 Mount Pleasant #4 200m 32.84 12th · 4th on team -0.035
2012-03-24 Mount Pleasant Invitational 2012 400m 1:07.54 10th · 2nd on team -0.035 SR
2012-03-22 SPC conference meet 400m 1:08.44 2nd · 2nd on team -0.041 SR
2012-03-17 2012 Marvin Ridge Invitational 400m 1:09.75 45th · 1st on team -0.039 SR
2012-03-15 Mount Pleasant #2 Non-conference 400m 1:10.54 3rd · 2nd on team -0.035
2012-03-08 Mount Pleasant #1 200m 29.44 4th · 1st on team -0.035 ★PR SR
2012-03-06 East Rowan Tri-meet 400m 1:10.24 2nd · 2nd on team -0.038 SR
2012-01-28 JDL Fast Track 500m 1:31 37th · 1st on team -0.047
2012-01-21 Durham Strriders Invitational 500m 1:29.74 37th · 1st on team -0.043 ★PR SR
2012-01-04 MHS Polar Bear 500m 1:31.7 5th · 1st on team -0.025 PR SR

2011 TF

Mount Pleasant (MI) · Grade 10

Date Meet Event Result Place Rating Difficulty PR/SR Flags
2011-04-12 SPC Conference Meet 400m 1:08.91 14th · 3rd on team -0.037
2011-04-07 Conc, CM, MP, NW 400m 1:07.44 1st · 1st on team -0.035
2011-03-31 Mount Pleasant Home meet #3 400m 1:10.24 3rd · 1st on team -0.035
2011-03-24 A.L. Brown Home meet #2 200m 29.74 7th · 1st on team -0.037 PR SR
2011-03-24 A.L. Brown Home meet #2 400m 1:07.94 2nd · 1st on team -0.037
2011-03-17 Mount Pleasant Home meet #2 400m 1:06.74 3rd · 1st on team -0.035 SR

2010 TF

Mount Pleasant (MI) · Grade 9

Date Meet Event Result Place Rating Difficulty PR/SR Flags
2010-04-01 Cc Cm Hr Jmr Mp 400m 1:05.14 1st · 1st on team -0.035
2010-03-25 Cc Cm Con Mp 400m 1:05.04 1st · 1st on team -0.035 ★PR SR